KBRD/BRD METAR and TAF weather

Enter ICAO airport designator
Station Type Date Time Source
KBRD METAR 2020/05/30 04:53 UTC NOAA

KBRD 300453Z AUTO 00000KT 10SM CLR 08/04 A3020 RMK AO2 SLP233 T00780044


Station Type Date Time Source
KBRD Decoded METAR 2020/05/30 04:53 UTC NOAA

BRAINERD-CROW WING CO AIRPORT , MN, United States (KBRD) 46-24N 94-08W 372M
May 30, 2020 - 12:53 AM EDT / 2020.05.30 0453 UTC
Wind: Calm:0
Visibility: 10 mile(s):0
Sky conditions: clear
Temperature: 46.0 F (7.8 C)
Dew Point: 39.9 F (4.4 C)
Relative Humidity: 79%
Pressure (altimeter): 30.2 in. Hg (1022 hPa)
ob: KBRD 300453Z AUTO 00000KT 10SM CLR 08/04 A3020 RMK AO2 SLP233 T00780044
cycle: 5

Station Type Date Time Source
KBRD TAF 2020/05/29 18:42 UTC NOAA

TAF KBRD 291740Z 2918/3018 34012G20KT P6SM SCT035
TEMPO 2918/2920 BKN025
FM292300 33009KT P6SM SCT040

Example: see airport list